Pagrindinis puslapis
METAR-TAF:

METAR-TAF

Oro uostai :

Phitsanulok, Tailandas

platuma: 16-46-23N, ilguma: 100-16-56E, Aukštis: 47 m

Dabartinis oras

Ataskaita buvo paskelbta 7 valandos ir 3 minutes, ne 13:00 UTC
Vėjas 2 kt nuo kintamojo kryptimis
Temperatūra 28°C
Drėgmė 89%
Slėgis 1005 hPa
Matomumas 10 km arba daugiau
nėra debesų žemiau 1500 m ir nėra kamuolinių lietaus debesų

METAR: VTPP 301300Z VRB02KT CAVOK 28/26 Q1005 NOSIG

Laikas: 03:03 (20:03 UTC)

Prognozė

Ataskaita buvo paskelbta 3 valandos ir 3 minutes, ne 17:00 UTC
Prognozė galioja nuo 30 metu 18 UTC su 01 metu 18 UTC
Vėjas 5 kt iš Pietų/Pietvakarių
Matomumas 10 km arba daugiau
Išsisklaidę debesys ne aukštis 3000 ft
Laikinai
nuo 01 metu 06 UTC su 01 metu 12 UTC
Vėjas 15 kt iš Pietų/Pietvakarių su gūsio iki 25 kt
Matomumas: 4000 m
Mažai debesys ne aukštis 2500 ft, Liūtiniai kamuoliniai debesys.
Su prošvaistėmis ne aukštis 3500 ft
perkūnija, lietus

TAF: VTPP 301700Z 3018/0118 20005KT 9999 SCT030 TEMPO 0106/0112 21015G25KT 4000 TSRA FEW025CB BKN035

Orai ataskaitas ir orų prognozės (METAR, TAF).

turimą stotys yra geltonos ir raudonos taškus žemėlapyje.

Perkelti pele per norėdami pamatyti stoties vardą.

Tada spustelėkite, norėdami matyti oro stebėjimo ir prognozės.

Norėdami pakeisti žemėlapį: spustelėkite ant žalios mygtukų su juodo kryžiaus žemyn,; žalią mygtuką su brūkšneliu, jei norite nutolinti; arba žalių rodyklių gretimoms žemėlapius.


METAR-TAF: